»·PEaware :: N4422P KBFI-KMWH

N4422P :: KBFI-KMWH

FLIGHT INFORMATION

Flight Status: Arrived
Operator: Privately registered:
United States
More flights under this callsign
Pilot: Armando C. (16967)
Aircraft: PIPER PA-34 SENECA
(PA34)
More flights by this aircraft type
Origin: KBFI Boeing Field/King Co Intl
United States
Destination: KMWH Grant Co Intl
United States
More flights between these airports :: More routes between these airports
Route: +NRVNA1 VAMPS V2 MWH
File this flight plan on PilotEdge
Remarks:
Altitude:
(Current/Filed)
9,000ft
Speed:
(Current/Filed)
170kts
Departed: 16-Apr-18 12:40 PM
Arrived: 16-Apr-18 01:37 PM
Distance/Time
Traveled:
123nm/0:57
Distance/Time
To Go:
Arrived

Flight Plot

Page will automatically refresh every two minutes.

Flight plan parsing failed; only flown route is shown


Map Options




Map Legend


Flown Route
Filed Route
Departure Airport
Arrival Airport
Navaid (VOR, NDB)
Fix

Horizontal Profiles

Position Reports

Time Latitude Longitude Heading Altitude Ground
Speed
16-Apr-18 11:27 47.536831 -122.304992 147 21ft 0kts
16-Apr-18 11:28 47.536831 -122.304992 147 21ft 0kts
16-Apr-18 11:29 47.536831 -122.304992 147 21ft 0kts
16-Apr-18 11:30 47.536831 -122.304992 147 21ft 0kts
16-Apr-18 11:31 47.536831 -122.304992 147 21ft 0kts
16-Apr-18 11:32 47.536831 -122.304992 147 21ft 0kts
16-Apr-18 11:33 47.536831 -122.304992 147 21ft 0kts
16-Apr-18 11:34 47.536831 -122.304992 147 21ft 0kts
16-Apr-18 11:35 47.536831 -122.304992 147 21ft 0kts
16-Apr-18 11:36 47.536830 -122.304991 147 21ft 0kts
16-Apr-18 11:37 47.536829 -122.304990 147 21ft 0kts
16-Apr-18 11:38 47.536829 -122.304990 147 21ft 0kts
16-Apr-18 11:39 47.536829 -122.304990 147 21ft 0kts
16-Apr-18 11:40 47.536829 -122.304990 147 21ft 0kts
16-Apr-18 11:41 47.536829 -122.304990 147 21ft 0kts
16-Apr-18 11:42 47.536829 -122.304990 147 21ft 0kts
16-Apr-18 11:43 47.536829 -122.304990 147 21ft 0kts
16-Apr-18 11:44 47.536829 -122.304990 147 21ft 0kts
16-Apr-18 11:45 47.536829 -122.304990 147 21ft 0kts
16-Apr-18 11:46 47.536829 -122.304990 147 21ft 0kts
16-Apr-18 11:47 47.536829 -122.304990 147 21ft 0kts
16-Apr-18 11:48 47.536829 -122.304990 147 21ft 0kts
16-Apr-18 11:49 47.536829 -122.304990 147 21ft 0kts
16-Apr-18 11:50 47.536829 -122.304990 147 21ft 0kts
16-Apr-18 11:51 47.536829 -122.304990 147 21ft 0kts
16-Apr-18 11:52 47.536829 -122.304990 147 21ft 0kts
16-Apr-18 11:53 47.536829 -122.304990 147 21ft 0kts
16-Apr-18 11:54 47.536829 -122.304990 147 21ft 0kts
16-Apr-18 11:55 47.536829 -122.304990 147 21ft 0kts
16-Apr-18 11:56 47.536829 -122.304990 147 21ft 0kts
16-Apr-18 11:57 47.536829 -122.304990 147 21ft 0kts
16-Apr-18 11:58 47.536829 -122.304990 147 21ft 0kts
16-Apr-18 11:59 47.536829 -122.304990 147 21ft 0kts
16-Apr-18 12:00 47.536829 -122.304990 147 21ft 0kts
16-Apr-18 12:01 47.536829 -122.304990 147 21ft 0kts
16-Apr-18 12:02 47.536829 -122.304990 147 21ft 0kts
16-Apr-18 12:03 47.536829 -122.304990 147 21ft 0kts
16-Apr-18 12:04 47.536829 -122.304990 147 21ft 0kts
16-Apr-18 12:05 47.536829 -122.304990 147 21ft 0kts
16-Apr-18 12:06 47.536829 -122.304990 147 21ft 0kts
16-Apr-18 12:07 47.536829 -122.304990 147 21ft 0kts
16-Apr-18 12:08 47.536829 -122.304990 147 21ft 0kts
16-Apr-18 12:09 47.536829 -122.304990 147 21ft 0kts
16-Apr-18 12:10 47.536829 -122.304990 147 21ft 0kts
16-Apr-18 12:11 47.536829 -122.304990 147 21ft 0kts
16-Apr-18 12:12 47.536829 -122.304990 147 21ft 0kts
16-Apr-18 12:13 47.536829 -122.304990 147 21ft 0kts
16-Apr-18 12:14 47.536829 -122.304990 147 21ft 0kts
16-Apr-18 12:15 47.536829 -122.304990 147 21ft 0kts
16-Apr-18 12:16 47.536829 -122.304990 147 21ft 0kts
16-Apr-18 12:17 47.536829 -122.304990 147 21ft 0kts
16-Apr-18 12:18 47.536829 -122.304990 147 21ft 0kts
16-Apr-18 12:19 47.536829 -122.304990 147 21ft 0kts
16-Apr-18 12:20 47.536829 -122.304990 147 21ft 0kts
16-Apr-18 12:21 47.536829 -122.304990 147 21ft 0kts
16-Apr-18 12:22 47.536829 -122.304990 147 21ft 0kts
16-Apr-18 12:23 47.536828 -122.304990 147 21ft 0kts
16-Apr-18 12:24 47.536828 -122.304989 147 21ft 0kts
16-Apr-18 12:25 47.536827 -122.304988 147 21ft 0kts
16-Apr-18 12:26 47.536826 -122.304987 147 21ft 0kts
16-Apr-18 12:27 47.536824 -122.304986 147 21ft 0kts
16-Apr-18 12:28 47.536823 -122.304984 147 21ft 0kts
16-Apr-18 12:29 47.536822 -122.304983 147 21ft 0kts
16-Apr-18 12:30 47.536821 -122.304982 147 21ft 0kts
16-Apr-18 12:31 47.536820 -122.304981 147 21ft 0kts
16-Apr-18 12:32 47.536819 -122.304980 147 21ft 0kts
16-Apr-18 12:33 47.536818 -122.304979 147 21ft 0kts
16-Apr-18 12:34 47.536650 -122.305256 245 21ft 3kts
16-Apr-18 12:35 47.538065 -122.306775 331 21ft 9kts
16-Apr-18 12:36 47.540674 -122.308922 324 21ft 9kts
16-Apr-18 12:37 47.540949 -122.310214 234 21ft 0kts
16-Apr-18 12:38 47.540916 -122.310281 233 21ft 2kts
16-Apr-18 12:39 47.536202 -122.308077 153 21ft 69kts
16-Apr-18 12:40 47.516508 -122.286340 145 1134ft 105kts
16-Apr-18 12:41 47.492182 -122.254356 143 2272ft 120kts
16-Apr-18 12:42 47.467248 -122.220379 145 3331ft 126kts
16-Apr-18 12:43 47.440751 -122.185851 140 4363ft 131kts
16-Apr-18 12:44 47.421444 -122.136749 124 5280ft 144kts
16-Apr-18 12:45 47.402739 -122.083015 120 6217ft 150kts
16-Apr-18 12:46 47.387182 -122.030684 113 6996ft 155kts
16-Apr-18 12:47 47.365271 -121.976386 117 7855ft 157kts
16-Apr-18 12:48 47.350882 -121.915019 110 8713ft 161kts
16-Apr-18 12:49 47.336157 -121.847603 109 9056ft 194kts
16-Apr-18 12:50 47.318935 -121.768575 109 9000ft 204kts
16-Apr-18 12:51 47.301627 -121.689055 109 8999ft 202kts
16-Apr-18 12:52 47.284431 -121.610531 109 8999ft 201kts
16-Apr-18 12:53 47.267135 -121.531937 109 8999ft 201kts
16-Apr-18 12:54 47.249861 -121.453706 110 9000ft 201kts
16-Apr-18 12:55 47.232517 -121.375465 110 9000ft 201kts
16-Apr-18 12:56 47.215069 -121.297054 110 9000ft 201kts
16-Apr-18 12:57 47.197628 -121.218971 110 9000ft 201kts
16-Apr-18 12:58 47.180065 -121.140631 110 9000ft 201kts
16-Apr-18 12:59 47.162517 -121.062640 110 8993ft 201kts
16-Apr-18 13:00 47.144947 -120.984854 110 9000ft 201kts
16-Apr-18 13:01 47.127214 -120.906642 110 9000ft 201kts
16-Apr-18 13:02 47.109512 -120.828799 110 9000ft 201kts
16-Apr-18 13:03 47.091754 -120.751017 110 9000ft 201kts
16-Apr-18 13:04 47.073877 -120.673002 110 9000ft 201kts
16-Apr-18 13:05 47.056010 -120.595322 110 9000ft 201kts
16-Apr-18 13:06 47.038027 -120.517417 110 9000ft 201kts
16-Apr-18 13:07 47.029210 -120.437675 80 9002ft 202kts
16-Apr-18 13:08 47.041381 -120.357435 74 8999ft 201kts
16-Apr-18 13:09 47.054844 -120.277388 74 9000ft 201kts
16-Apr-18 13:10 47.068187 -120.197496 74 9000ft 202kts
16-Apr-18 13:11 47.081454 -120.117575 74 9000ft 202kts
16-Apr-18 13:12 47.094697 -120.037359 74 9000ft 202kts
16-Apr-18 13:13 47.107843 -119.957301 74 8959ft 203kts
16-Apr-18 13:14 47.121007 -119.876594 74 8470ft 203kts
16-Apr-18 13:15 47.134142 -119.796065 74 7986ft 201kts
16-Apr-18 13:16 47.158615 -119.727362 27 7472ft 190kts
16-Apr-18 13:17 47.203966 -119.688028 24 6992ft 187kts
16-Apr-18 13:18 47.248871 -119.649638 24 6514ft 186kts
16-Apr-18 13:19 47.297591 -119.636619 345 5903ft 178kts
16-Apr-18 13:20 47.345071 -119.657909 336 5309ft 180kts
16-Apr-18 13:21 47.396288 -119.662956 357 4725ft 182kts
16-Apr-18 13:22 47.444798 -119.646553 16 4076ft 177kts
16-Apr-18 13:23 47.484013 -119.610963 46 4102ft 159kts
16-Apr-18 13:24 47.499766 -119.556648 106 4119ft 143kts
16-Apr-18 13:25 47.474563 -119.518474 153 4101ft 132kts
16-Apr-18 13:26 47.442114 -119.493386 158 4098ft 130kts
16-Apr-18 13:27 47.411118 -119.465736 151 4099ft 130kts
16-Apr-18 13:28 47.380848 -119.436450 151 4099ft 130kts
16-Apr-18 13:29 47.352529 -119.412129 158 3611ft 111kts
16-Apr-18 13:30 47.326265 -119.395803 152 2946ft 97kts
16-Apr-18 13:31 47.302065 -119.379006 160 2345ft 95kts
16-Apr-18 13:32 47.282588 -119.365788 159 1855ft 90kts
16-Apr-18 13:33 47.261169 -119.351263 159 1864ft 82kts
16-Apr-18 13:34 47.239851 -119.336667 158 1892ft 84kts
16-Apr-18 13:35 47.220270 -119.323871 163 1213ft 59kts
16-Apr-18 13:36 47.209859 -119.319100 163 1188ft 40kts
16-Apr-18 13:37 47.203334 -119.317249 245 1188ft 16kts
16-Apr-18 13:38 47.198142 -119.327853 231 1188ft 40kts
16-Apr-18 13:39 47.193058 -119.331819 178 1188ft 29kts
16-Apr-18 13:40 47.190568 -119.326264 183 1188ft 0kts
16-Apr-18 13:41 47.190568 -119.326264 183 1188ft 0kts
16-Apr-18 13:42 47.190568 -119.326264 183 1188ft 0kts
16-Apr-18 13:43 47.190568 -119.326264 183 1188ft 0kts

Navigation Log

Ident Type
Flight plan parsing failed, navigation log unavailable